Kezdőlap
METAR-TAF:

METAR-TAF

Repülőterek :

Kastamonu, Törökország

földrajzi szélesség: 41-19-01N, földrajzi hosszúság: 33-47-46E, magasság: 1073 m

Jelenlegi meteorológiai megfigyelések

A jelentés 11 órával és 54 perccel ezelõtt készült, 10:50 UTC
Nyugat-délnyugati szél 8 kt
Hőmérséklet 4°C
Páratartalom 81%
Légköri nyomás 1017 hPa
Látótávolság 10 km, vagy több
Kevés felhő 1000 lábon
Szakadozott felhőzet 2500 lábon
Borult 7000 lábon

METAR: LTAL 161050Z 24008KT 9999 FEW010 BKN025 OVC070 04/01 Q1017

Idő: 01:44 (22:44 UTC)

Előrejelzés

A jelentés 9 órával és 4 perccel ezelõtt készült, 13:40 UTC
Az előrejelzés 16-én 15 óra UTC és 16-én 24 óra UTC között érvényes
Nyugat-délnyugati szél 8 kt
Látótávolság 10 km, vagy több
Szórványos felhőzet 2700 lábon
Szakadozott felhőzet 8000 lábon

TAF: LTAL 161340Z 1615/1624 24008KT 9999 SCT027 BKN080

Meteorológiai megfigyelések és előrejelzések több, mint 4000 repülőtéren (METAR és TAF jelentéseket).

A térképen piros és sárga pontok jelzik az elérhető meteorológiai állomásokat.

Mozgassa az egeret a pont fölött, hogy megjelenjen az állomás neve.

Azután kattintson az időjárási megfigyelések és előrejelzések megtekintéséhez.

A térkép megváltoztatása: kattintson a fekete keresztel jelölt zöld gombra ráközelítéshez, a vonallal jelölt zöld gombra távolításhoz, vagy a zöld nyilakra a szomszédos térképek eléréséhez.


METAR-TAF: